Time;durP1;ratioP1;P1;durP2;ratioP2;P2;SDS_P1;SDS_P2;PMS_P1;PMS_P2;Temp;Humidity;BMP_temperature;BMP_pressure;BME280_temperature;BME280_humidity;BME280_pressure;Samples;Min_cycle;Max_cycle;Signal;HPM_P1;HPM_P2
2022/01/10 00:00:31;;;;;;;8.98;4.15;;;5.50;93.60;;;;;;4886299;29;20036;-73
2022/01/10 00:02:58;;;;;;;16.10;4.88;;;5.40;93.70;;;;;;4884436;29;20044;-73
2022/01/10 00:05:25;;;;;;;8.50;4.63;;;5.40;93.80;;;;;;4885095;29;20141;-73
2022/01/10 00:07:50;;;;;;;9.27;4.40;;;5.40;93.90;;;;;;4884961;29;20075;-73
2022/01/10 00:10:17;;;;;;;11.27;5.07;;;5.40;94.00;;;;;;4888351;29;20752;-74
2022/01/10 00:12:43;;;;;;;10.00;4.63;;;5.40;94.10;;;;;;4870247;29;20032;-74
2022/01/10 00:15:10;;;;;;;9.30;4.45;;;5.50;94.00;;;;;;4888081;29;20044;-75
2022/01/10 00:17:38;;;;;;;9.27;4.88;;;5.50;94.00;;;;;;4886752;29;20095;-72
2022/01/10 00:20:08;;;;;;;12.77;5.60;;;5.60;94.00;;;;;;4888532;29;20119;-72
2022/01/10 00:22:35;;;;;;;14.45;5.15;;;5.60;94.00;;;;;;4888145;29;20096;-74
2022/01/10 00:25:00;;;;;;;11.90;4.97;;;5.60;94.10;;;;;;4887508;29;20926;-75
2022/01/10 00:27:26;;;;;;;12.73;5.03;;;5.70;94.10;;;;;;4883855;29;20032;-74
2022/01/10 00:29:52;;;;;;;14.05;5.10;;;5.80;94.10;;;;;;4886159;29;20406;-74
2022/01/10 00:32:18;;;;;;;11.68;5.45;;;5.80;94.10;;;;;;4880306;29;20040;-73
2022/01/10 00:34:43;;;;;;;17.35;5.75;;;5.90;94.00;;;;;;4899004;29;20071;-74
2022/01/10 00:37:09;;;;;;;17.48;5.82;;;6.00;93.90;;;;;;4887997;29;20048;-74
2022/01/10 00:39:36;;;;;;;16.42;5.18;;;6.10;93.90;;;;;;4900040;29;20032;-74
2022/01/10 00:42:02;;;;;;;11.65;4.75;;;6.10;93.70;;;;;;4885330;29;20036;-74
2022/01/10 00:44:37;;;;;;;7.72;4.40;;;6.20;93.70;;;;;;4884868;29;20035;-74
2022/01/10 00:47:04;;;;;;;13.00;5.20;;;6.20;93.60;;;;;;4885203;29;20088;-74
2022/01/10 00:49:30;;;;;;;8.20;4.40;;;6.20;93.50;;;;;;4883891;29;20056;-74
2022/01/10 00:51:56;;;;;;;10.35;4.53;;;6.20;93.40;;;;;;4885768;29;20117;-74
2022/01/10 00:54:22;;;;;;;10.48;5.05;;;6.30;93.40;;;;;;4893413;29;20036;-74
2022/01/10 00:56:47;;;;;;;12.95;4.82;;;6.30;93.30;;;;;;4885231;29;20058;-74
2022/01/10 00:59:13;;;;;;;12.63;4.75;;;6.30;93.30;;;;;;4900749;29;20040;-74
2022/01/10 01:01:39;;;;;;;11.75;4.60;;;6.30;93.20;;;;;;4889857;29;20040;-74
2022/01/10 01:04:05;;;;;;;12.10;4.72;;;6.30;93.20;;;;;;4900574;29;20033;-74
2022/01/10 01:06:31;;;;;;;9.40;4.50;;;6.40;93.20;;;;;;4899946;29;20032;-74
2022/01/10 01:09:01;;;;;;;6.70;4.53;;;6.40;93.10;;;;;;4886502;29;20040;-74
2022/01/10 01:14:06;;;;;;;7.28;4.43;;;6.50;93.00;;;;;;4900613;29;20625;-74
2022/01/10 01:24:21;;;;;;;9.55;4.03;;;6.60;92.80;;;;;;4899012;29;20131;-74
2022/01/10 01:26:52;;;;;;;11.68;4.18;;;6.60;92.80;;;;;;4897813;29;20032;-74
2022/01/10 01:29:21;;;;;;;8.48;4.10;;;6.60;92.80;;;;;;4891232;29;20040;-74
2022/01/10 01:31:48;;;;;;;10.50;4.53;;;6.60;92.70;;;;;;4885734;29;20032;-75
2022/01/10 01:34:15;;;;;;;7.90;4.03;;;6.70;92.80;;;;;;4900452;29;20147;-74
2022/01/10 01:36:45;;;;;;;7.80;3.85;;;6.70;92.70;;;;;;4884269;29;20028;-74
2022/01/10 01:39:19;;;;;;;9.57;4.60;;;6.70;92.70;;;;;;4887719;29;20158;-74
2022/01/10 01:41:49;;;;;;;10.32;4.05;;;6.70;92.60;;;;;;4889199;29;20440;-74
2022/01/10 01:44:16;;;;;;;9.15;4.28;;;6.70;92.60;;;;;;4886065;29;20044;-74
2022/01/10 01:46:42;;;;;;;9.80;4.25;;;6.70;92.60;;;;;;4865740;29;20489;-75
2022/01/10 01:49:09;;;;;;;7.82;3.80;;;6.70;92.50;;;;;;4899853;29;20048;-74
2022/01/10 01:51:35;;;;;;;9.85;4.65;;;6.70;92.60;;;;;;4897634;29;20033;-74
2022/01/10 01:54:02;;;;;;;8.23;4.18;;;6.70;92.50;;;;;;4901186;29;20494;-74
2022/01/10 01:56:28;;;;;;;7.07;3.88;;;6.70;92.50;;;;;;4899664;29;20037;-73
2022/01/10 01:58:55;;;;;;;8.50;4.13;;;6.70;92.50;;;;;;4898061;29;20040;-73
2022/01/10 02:01:23;;;;;;;8.60;3.60;;;6.70;92.40;;;;;;4898667;29;20064;-73
2022/01/10 02:03:49;;;;;;;9.30;3.97;;;6.70;92.40;;;;;;4900145;29;20033;-73
2022/01/10 02:06:21;;;;;;;5.05;3.65;;;6.80;92.40;;;;;;4898882;29;20028;-72
2022/01/10 02:08:47;;;;;;;6.95;4.13;;;6.80;92.40;;;;;;4898755;29;20621;-73
2022/01/10 02:11:14;;;;;;;8.15;4.20;;;6.80;92.40;;;;;;4899905;29;20037;-73
2022/01/10 02:13:41;;;;;;;7.50;4.38;;;6.70;92.50;;;;;;4883867;29;20505;-73
2022/01/10 02:16:32;;;;;;;8.43;4.25;;;6.80;92.50;;;;;;4898063;29;20025;-72
2022/01/10 02:18:59;;;;;;;7.50;3.78;;;6.80;92.50;;;;;;4884390;29;20051;-73
2022/01/10 02:21:25;;;;;;;8.00;4.63;;;6.70;92.50;;;;;;4902714;29;20768;-72
2022/01/10 02:23:51;;;;;;;11.63;4.80;;;6.80;92.50;;;;;;4901795;29;20040;-73
2022/01/10 02:26:23;;;;;;;8.88;4.90;;;6.70;92.50;;;;;;4901350;29;20168;-72
2022/01/10 02:28:48;;;;;;;8.90;4.57;;;6.70;92.50;;;;;;4898141;29;20148;-73
2022/01/10 02:31:14;;;;;;;10.05;4.32;;;6.70;92.60;;;;;;4881279;29;20414;-73
2022/01/10 02:33:40;;;;;;;7.53;4.32;;;6.70;92.60;;;;;;4885030;29;20517;-72
2022/01/10 02:38:53;;;;;;;7.82;4.05;;;6.70;92.60;;;;;;4883842;29;20029;-72
2022/01/10 02:41:30;;;;;;;6.78;4.30;;;6.70;92.50;;;;;;4886713;29;20051;-73
2022/01/10 02:43:58;;;;;;;10.75;5.05;;;6.80;92.50;;;;;;4886280;29;20061;-72
2022/01/10 02:46:26;;;;;;;8.63;4.28;;;6.80;92.50;;;;;;4884220;29;20032;-73
2022/01/10 02:48:53;;;;;;;6.50;4.20;;;6.80;92.40;;;;;;4902718;29;20187;-72
2022/01/10 02:51:20;;;;;;;8.05;4.43;;;6.70;92.40;;;;;;4886975;29;20037;-73
2022/01/10 02:53:47;;;;;;;9.48;4.28;;;6.70;92.40;;;;;;4882978;29;20028;-73
2022/01/10 02:56:13;;;;;;;11.27;4.10;;;6.80;92.50;;;;;;4886790;29;20834;-72
2022/01/10 02:58:40;;;;;;;7.43;3.60;;;6.70;92.40;;;;;;4901075;29;20039;-72
2022/01/10 03:01:06;;;;;;;11.80;4.53;;;6.80;92.50;;;;;;4894033;29;20037;-73
2022/01/10 03:03:33;;;;;;;7.70;4.35;;;6.70;92.40;;;;;;4892666;29;20036;-72
2022/01/10 03:06:00;;;;;;;11.60;4.70;;;6.70;92.50;;;;;;4883690;29;20039;-73
2022/01/10 03:08:27;;;;;;;7.68;3.92;;;6.80;92.50;;;;;;4885006;29;20799;-73
2022/01/10 03:10:54;;;;;;;8.35;4.50;;;6.80;92.50;;;;;;4886621;29;20036;-72
2022/01/10 03:13:21;;;;;;;10.68;4.65;;;6.80;92.50;;;;;;4885228;29;20029;-72
2022/01/10 03:15:47;;;;;;;7.32;3.60;;;6.80;92.40;;;;;;4896339;29;20036;-74
2022/01/10 03:18:12;;;;;;;6.55;3.40;;;6.80;92.40;;;;;;4886372;29;20301;-72
2022/01/10 03:20:39;;;;;;;9.77;4.50;;;6.80;92.40;;;;;;4892874;29;20033;-72
2022/01/10 03:23:05;;;;;;;8.50;4.03;;;6.80;92.40;;;;;;4884521;29;20508;-73
2022/01/10 03:25:31;;;;;;;8.45;4.15;;;6.80;92.50;;;;;;4901254;29;20032;-73
2022/01/10 03:28:00;;;;;;;9.73;3.75;;;6.80;92.40;;;;;;4901156;29;20037;-72
2022/01/10 03:30:26;;;;;;;9.88;4.80;;;6.80;92.40;;;;;;4887130;29;20040;-72
2022/01/10 03:32:52;;;;;;;9.55;4.32;;;6.80;92.40;;;;;;4887078;29;20033;-73
2022/01/10 03:35:26;;;;;;;11.93;5.15;;;6.80;92.50;;;;;;4880203;29;20040;-73
2022/01/10 03:37:52;;;;;;;6.78;4.00;;;6.80;92.50;;;;;;4898260;29;20044;-73
2022/01/10 03:40:20;;;;;;;8.50;4.15;;;6.70;92.60;;;;;;4885614;29;20055;-73
2022/01/10 03:42:46;;;;;;;9.00;4.18;;;6.70;92.60;;;;;;4901261;29;20116;-72
2022/01/10 03:45:12;;;;;;;9.77;4.10;;;6.80;92.60;;;;;;4881734;29;20499;-74
2022/01/10 03:47:38;;;;;;;5.85;4.07;;;6.80;92.50;;;;;;4898792;29;20072;-72
2022/01/10 03:50:05;;;;;;;8.52;4.32;;;6.80;92.50;;;;;;4898027;29;20089;-73
2022/01/10 03:52:32;;;;;;;9.82;4.43;;;6.80;92.50;;;;;;4885060;29;20043;-72
2022/01/10 03:54:58;;;;;;;8.75;3.80;;;6.80;92.50;;;;;;4902161;29;20780;-72
2022/01/10 03:57:24;;;;;;;8.00;4.30;;;6.80;92.50;;;;;;4884114;29;20056;-73
2022/01/10 03:59:50;;;;;;;12.77;5.32;;;6.70;92.50;;;;;;4881508;29;20671;-72
2022/01/10 04:02:15;;;;;;;9.43;4.65;;;6.80;92.50;;;;;;4885656;29;20378;-73
2022/01/10 04:04:42;;;;;;;9.52;4.15;;;6.70;92.50;;;;;;4883813;29;20394;-72
2022/01/10 04:07:08;;;;;;;7.65;4.38;;;6.70;92.50;;;;;;4900814;29;20036;-72
2022/01/10 04:09:34;;;;;;;9.90;4.70;;;6.70;92.60;;;;;;4900870;29;20033;-72
2022/01/10 04:12:00;;;;;;;8.27;4.40;;;6.70;92.60;;;;;;4901574;29;20037;-72
2022/01/10 04:14:25;;;;;;;8.65;4.38;;;6.80;92.60;;;;;;4901951;29;20036;-73
2022/01/10 04:16:51;;;;;;;7.13;4.00;;;6.80;92.60;;;;;;4884185;29;20351;-73
2022/01/10 04:19:17;;;;;;;8.88;3.83;;;6.80;92.50;;;;;;4889227;29;20044;-73
2022/01/10 04:21:42;;;;;;;7.22;3.97;;;6.80;92.60;;;;;;4886384;29;20024;-72
2022/01/10 04:24:08;;;;;;;8.00;4.03;;;6.80;92.50;;;;;;4886141;29;20032;-73
2022/01/10 04:26:34;;;;;;;7.38;4.00;;;6.80;92.50;;;;;;4889092;29;20100;-72
2022/01/10 04:29:01;;;;;;;5.80;3.88;;;6.80;92.50;;;;;;4887161;29;20036;-72
2022/01/10 04:31:28;;;;;;;6.80;3.85;;;6.80;92.50;;;;;;4901394;29;20033;-73
2022/01/10 04:33:53;;;;;;;6.20;3.95;;;6.80;92.60;;;;;;4884303;29;20099;-72
2022/01/10 04:36:20;;;;;;;8.85;4.55;;;6.80;92.50;;;;;;4883906;29;20036;-72
2022/01/10 04:38:46;;;;;;;6.65;4.20;;;6.80;92.50;;;;;;4899910;29;20459;-73
2022/01/10 04:41:14;;;;;;;7.65;3.80;;;6.80;92.80;;;;;;4897278;29;20039;-73
2022/01/10 04:43:41;;;;;;;8.90;3.75;;;6.80;92.40;;;;;;4883448;29;20557;-73
2022/01/10 04:46:08;;;;;;;6.65;3.95;;;6.80;92.40;;;;;;4886212;29;20040;-73
2022/01/10 04:48:34;;;;;;;8.60;3.65;;;6.80;92.50;;;;;;4884634;29;20033;-72
2022/01/10 04:51:12;;;;;;;7.03;3.75;;;6.80;92.50;;;;;;4900249;29;20561;-72
2022/01/10 04:53:46;;;;;;;8.27;4.25;;;6.80;92.50;;;;;;4897261;29;20128;-72
2022/01/10 04:56:14;;;;;;;6.63;4.00;;;6.70;92.60;;;;;;4882637;29;20801;-72
2022/01/10 04:58:42;;;;;;;11.50;4.03;;;6.80;92.60;;;;;;4885626;29;20079;-73
2022/01/10 05:01:09;;;;;;;9.77;4.00;;;6.80;92.70;;;;;;4900943;29;20120;-72
2022/01/10 05:03:37;;;;;;;7.30;3.78;;;6.70;92.90;;;;;;4885267;29;20042;-72
2022/01/10 05:06:03;;;;;;;7.72;4.25;;;6.70;92.70;;;;;;4900968;29;20111;-72
2022/01/10 05:08:29;;;;;;;8.18;4.18;;;6.70;92.70;;;;;;4887815;29;20060;-72
2022/01/10 05:10:55;;;;;;;10.30;3.92;;;6.70;92.60;;;;;;4882744;29;20036;-72
2022/01/10 05:13:23;;;;;;;6.53;3.80;;;6.80;92.70;;;;;;4900729;29;20075;-72
2022/01/10 05:15:52;;;;;;;6.78;3.90;;;6.80;92.70;;;;;;4878805;29;20040;-72
2022/01/10 05:18:20;;;;;;;6.03;3.60;;;6.80;92.60;;;;;;4900332;29;20029;-72
2022/01/10 05:20:46;;;;;;;6.50;3.88;;;6.80;92.60;;;;;;4884620;29;20024;-73
2022/01/10 05:23:12;;;;;;;9.57;4.38;;;6.80;92.60;;;;;;4900346;29;20040;-72
2022/01/10 05:25:40;;;;;;;5.88;3.40;;;6.80;92.60;;;;;;4900314;29;20049;-73
2022/01/10 05:28:10;;;;;;;7.47;4.10;;;6.80;92.60;;;;;;4889639;29;20147;-72
2022/01/10 05:30:38;;;;;;;6.18;3.20;;;6.80;92.60;;;;;;4900077;29;20497;-72
2022/01/10 05:33:07;;;;;;;7.45;3.90;;;6.80;92.60;;;;;;4892266;29;20748;-72
2022/01/10 05:35:39;;;;;;;8.65;3.97;;;6.80;92.70;;;;;;4884940;29;20115;-72
2022/01/10 05:38:05;;;;;;;6.63;3.83;;;6.80;92.60;;;;;;4883860;29;20139;-73
2022/01/10 05:40:33;;;;;;;7.47;4.10;;;6.80;92.60;;;;;;4900349;29;20032;-72
2022/01/10 05:42:58;;;;;;;7.05;4.05;;;6.80;92.60;;;;;;4884722;29;20028;-72
2022/01/10 05:45:27;;;;;;;9.65;4.28;;;6.80;92.40;;;;;;4883315;29;20028;-72
2022/01/10 05:47:53;;;;;;;6.35;3.75;;;6.80;92.40;;;;;;4883992;29;20040;-73
2022/01/10 05:50:31;;;;;;;9.60;3.55;;;6.80;92.40;;;;;;4896318;29;20036;-73
2022/01/10 05:52:57;;;;;;;5.88;3.58;;;6.70;92.30;;;;;;4899610;29;20075;-73
2022/01/10 05:55:23;;;;;;;5.68;3.60;;;6.70;92.40;;;;;;4900064;29;20037;-73
2022/01/10 05:57:49;;;;;;;12.73;3.72;;;6.60;92.30;;;;;;4899891;29;20088;-73
2022/01/10 06:00:15;;;;;;;5.70;3.65;;;6.60;92.30;;;;;;4899513;29;20036;-73
2022/01/10 06:02:41;;;;;;;8.63;4.20;;;6.50;92.40;;;;;;4884788;29;20052;-73
2022/01/10 06:05:09;;;;;;;7.43;3.85;;;6.50;92.40;;;;;;4884122;29;20837;-73
2022/01/10 06:07:44;;;;;;;11.05;5.20;;;6.40;92.40;;;;;;4884010;29;20147;-73
2022/01/10 06:10:10;;;;;;;9.63;6.25;;;6.40;92.40;;;;;;4903746;29;20037;-72
2022/01/10 06:12:36;;;;;;;16.15;7.82;;;6.30;92.30;;;;;;4887433;29;20047;-72
2022/01/10 06:15:04;;;;;;;13.57;6.82;;;6.30;92.30;;;;;;4902185;29;20127;-73
2022/01/10 06:17:31;;;;;;;15.65;6.63;;;6.20;92.60;;;;;;4905717;29;20032;-73
2022/01/10 06:19:59;;;;;;;16.80;7.00;;;6.10;92.30;;;;;;4910424;29;20838;-73
2022/01/10 06:22:25;;;;;;;10.07;5.25;;;6.00;92.30;;;;;;4903354;29;20048;-72
2022/01/10 06:24:51;;;;;;;10.02;4.63;;;5.80;92.30;;;;;;4887717;29;20037;-73
2022/01/10 06:27:19;;;;;;;10.60;3.80;;;5.70;92.50;;;;;;4904868;29;20218;-73
2022/01/10 06:29:45;;;;;;;8.85;4.03;;;5.50;92.60;;;;;;4905942;29;20493;-73
2022/01/10 06:32:12;;;;;;;6.97;4.07;;;5.40;92.80;;;;;;4892352;29;20106;-73
2022/01/10 06:34:38;;;;;;;9.45;4.38;;;5.40;93.00;;;;;;4906095;29;20552;-72
2022/01/10 06:37:05;;;;;;;5.50;3.80;;;5.40;93.20;;;;;;4894593;29;20904;-73
2022/01/10 06:39:37;;;;;;;8.88;4.55;;;5.50;93.40;;;;;;4902656;29;20047;-73
2022/01/10 06:42:04;;;;;;;8.57;4.45;;;5.50;93.40;;;;;;4894608;29;20036;-73
2022/01/10 06:44:29;;;;;;;8.95;4.57;;;5.60;93.50;;;;;;4895139;29;20493;-73
2022/01/10 06:46:56;;;;;;;8.45;4.63;;;5.60;93.60;;;;;;4897292;29;20033;-72
2022/01/10 06:49:22;;;;;;;9.60;4.18;;;5.60;93.60;;;;;;4892069;29;20453;-73
2022/01/10 06:51:47;;;;;;;10.98;4.88;;;5.70;93.70;;;;;;4905223;29;20039;-73
2022/01/10 06:54:13;;;;;;;9.20;4.82;;;5.70;93.70;;;;;;4896462;29;20516;-73
2022/01/10 06:56:39;;;;;;;9.95;4.70;;;5.80;93.70;;;;;;4903406;29;20032;-72
2022/01/10 06:59:06;;;;;;;10.10;4.93;;;5.90;93.60;;;;;;4894367;29;20070;-73
2022/01/10 07:01:39;;;;;;;8.20;4.40;;;5.90;93.60;;;;;;4887476;29;20056;-73
2022/01/10 07:04:06;;;;;;;9.88;4.63;;;6.00;93.60;;;;;;4902043;29;20033;-72
2022/01/10 07:06:32;;;;;;;8.88;4.57;;;6.00;93.50;;;;;;4896564;29;20630;-73
2022/01/10 07:09:02;;;;;;;8.57;4.57;;;6.10;93.50;;;;;;4891890;29;20032;-72
2022/01/10 07:11:36;;;;;;;9.90;4.53;;;6.20;93.40;;;;;;4890614;29;20064;-73
2022/01/10 07:14:03;;;;;;;10.02;5.10;;;6.20;93.30;;;;;;4894859;29;20168;-72
2022/01/10 07:16:29;;;;;;;9.48;4.75;;;6.20;93.30;;;;;;4887831;29;20404;-73
2022/01/10 07:19:01;;;;;;;9.10;4.90;;;6.20;93.20;;;;;;4904111;29;20539;-73
2022/01/10 07:21:34;;;;;;;9.55;5.07;;;6.20;93.20;;;;;;4901247;29;20045;-72
2022/01/10 07:23:59;;;;;;;7.30;4.47;;;6.20;93.20;;;;;;4894550;29;20033;-72
2022/01/10 07:26:27;;;;;;;8.38;4.05;;;6.10;93.20;;;;;;4890410;29;20699;-72
2022/01/10 07:28:53;;;;;;;7.60;4.60;;;6.10;93.20;;;;;;4888029;29;20052;-72
2022/01/10 07:31:19;;;;;;;12.93;5.72;;;6.10;93.10;;;;;;4889867;29;20035;-73
2022/01/10 07:33:44;;;;;;;8.48;4.47;;;6.10;93.00;;;;;;4894179;29;20039;-72
2022/01/10 07:36:10;;;;;;;10.52;4.90;;;6.10;92.90;;;;;;4895959;29;20047;-72
2022/01/10 07:38:36;;;;;;;11.45;4.50;;;6.10;93.00;;;;;;4893421;29;20087;-72
2022/01/10 07:41:04;;;;;;;8.15;5.25;;;6.10;92.80;;;;;;4887717;29;20067;-72
2022/01/10 07:43:30;;;;;;;10.25;4.80;;;6.10;92.90;;;;;;4886402;29;20033;-72
2022/01/10 07:45:57;;;;;;;8.13;4.53;;;6.00;92.90;;;;;;4905810;29;20072;-73
2022/01/10 07:48:24;;;;;;;10.45;5.68;;;6.00;92.90;;;;;;4891011;29;20048;-72
2022/01/10 07:50:49;;;;;;;10.57;5.15;;;6.00;92.90;;;;;;4890083;29;20067;-72
2022/01/10 07:53:15;;;;;;;11.98;5.75;;;6.00;93.00;;;;;;4888501;29;20040;-72
2022/01/10 07:55:41;;;;;;;8.45;4.78;;;6.00;93.00;;;;;;4886816;29;20111;-73
2022/01/10 07:58:06;;;;;;;7.38;4.57;;;6.00;93.00;;;;;;4896035;29;20115;-72
2022/01/10 08:00:32;;;;;;;14.07;5.65;;;6.00;93.00;;;;;;4886433;29;20773;-72
2022/01/10 08:02:58;;;;;;;6.35;4.68;;;6.00;93.10;;;;;;4888518;29;20047;-73
2022/01/10 08:05:24;;;;;;;9.52;5.45;;;6.00;93.20;;;;;;4890538;29;20116;-72
2022/01/10 08:07:49;;;;;;;9.18;5.55;;;6.00;93.20;;;;;;4892565;29;20064;-72
2022/01/10 08:10:15;;;;;;;13.07;6.07;;;6.10;93.30;;;;;;4886505;29;20516;-72
2022/01/10 08:12:41;;;;;;;7.68;5.03;;;6.10;93.30;;;;;;4892047;29;20079;-72
2022/01/10 08:15:07;;;;;;;10.68;5.25;;;6.20;93.30;;;;;;4890003;29;20041;-72
2022/01/10 08:17:33;;;;;;;12.25;5.97;;;6.20;93.40;;;;;;4888322;29;20076;-73
2022/01/10 08:19:59;;;;;;;10.30;5.38;;;6.30;93.40;;;;;;4889879;29;20041;-72
2022/01/10 08:22:25;;;;;;;14.25;6.18;;;6.30;93.30;;;;;;4893443;29;20032;-72
2022/01/10 08:24:52;;;;;;;10.45;5.15;;;6.40;93.40;;;;;;4890294;29;20573;-73
2022/01/10 08:27:17;;;;;;;14.35;6.43;;;6.40;93.30;;;;;;4890051;29;20044;-72
2022/01/10 08:29:43;;;;;;;14.15;6.22;;;6.50;93.30;;;;;;4895598;29;20059;-73
2022/01/10 08:32:09;;;;;;;18.08;6.05;;;6.50;93.30;;;;;;4892690;29;20144;-73
2022/01/10 08:34:35;;;;;;;14.68;6.30;;;6.60;93.20;;;;;;4888581;29;20036;-72
2022/01/10 08:37:01;;;;;;;12.18;6.38;;;6.70;93.20;;;;;;4893834;29;20433;-72
2022/01/10 08:39:27;;;;;;;10.77;5.60;;;6.70;93.10;;;;;;4900200;29;20061;-73
2022/01/10 08:41:52;;;;;;;13.07;6.65;;;6.80;93.00;;;;;;4888446;29;20041;-73
2022/01/10 08:44:18;;;;;;;18.15;8.38;;;6.80;93.20;;;;;;4891771;29;20028;-74
2022/01/10 08:46:45;;;;;;;16.23;7.63;;;6.90;92.90;;;;;;4885621;29;20112;-73
2022/01/10 08:49:12;;;;;;;14.30;6.53;;;6.90;92.90;;;;;;4891476;29;20509;-73
2022/01/10 08:51:39;;;;;;;11.88;6.40;;;6.90;92.80;;;;;;4886126;29;20036;-72
2022/01/10 08:54:06;;;;;;;12.02;5.90;;;7.00;92.80;;;;;;4893150;29;20040;-73
2022/01/10 08:56:32;;;;;;;14.98;7.50;;;7.00;92.70;;;;;;4903997;29;20856;-73
2022/01/10 08:58:59;;;;;;;12.88;6.90;;;7.00;92.60;;;;;;4889318;29;20048;-69
2022/01/10 09:01:26;;;;;;;17.65;7.10;;;7.10;92.60;;;;;;4885798;29;20563;-75
2022/01/10 09:03:53;;;;;;;13.98;7.30;;;7.10;92.50;;;;;;4890282;29;20052;-73
2022/01/10 09:06:19;;;;;;;25.90;10.23;;;7.10;92.50;;;;;;4887202;29;20143;-72
2022/01/10 09:08:47;;;;;;;23.95;8.75;;;7.20;92.50;;;;;;4887134;29;20040;-73
2022/01/10 09:11:13;;;;;;;24.02;9.10;;;7.20;92.40;;;;;;4891844;29;20040;-74
2022/01/10 09:13:39;;;;;;;22.75;8.85;;;7.20;92.30;;;;;;4892738;29;20025;-73
2022/01/10 09:16:07;;;;;;;17.05;7.97;;;7.20;92.30;;;;;;4887031;29;20041;-74
2022/01/10 09:18:33;;;;;;;19.42;7.80;;;7.20;92.30;;;;;;4884889;29;20060;-72
2022/01/10 09:20:59;;;;;;;14.77;6.90;;;7.30;92.30;;;;;;4889106;29;20139;-73
2022/01/10 09:23:26;;;;;;;14.15;6.10;;;7.20;92.20;;;;;;4889756;29;20440;-71
2022/01/10 09:25:52;;;;;;;10.30;5.75;;;7.30;92.20;;;;;;4884987;29;20196;-70
2022/01/10 09:28:20;;;;;;;11.88;5.97;;;7.30;92.20;;;;;;4893875;29;20041;-70
2022/01/10 09:30:47;;;;;;;11.10;5.18;;;7.30;92.20;;;;;;4892356;29;20573;-70
2022/01/10 09:33:13;;;;;;;13.32;5.68;;;7.40;92.20;;;;;;4891593;29;20058;-65
2022/01/10 09:35:40;;;;;;;12.68;6.10;;;7.40;92.20;;;;;;4889259;29;20036;-71
2022/01/10 09:38:07;;;;;;;11.38;5.65;;;7.50;92.10;;;;;;4895386;29;20037;-70
2022/01/10 09:40:33;;;;;;;9.88;5.68;;;7.60;92.00;;;;;;4885531;29;20573;-73
2022/01/10 09:42:59;;;;;;;8.70;5.32;;;7.60;91.90;;;;;;4884091;29;20567;-73
2022/01/10 09:45:24;;;;;;;15.35;5.85;;;7.80;91.80;;;;;;4903560;29;20041;-73
2022/01/10 09:47:50;;;;;;;18.63;7.35;;;7.80;91.70;;;;;;4900563;29;20088;-74
2022/01/10 09:50:16;;;;;;;23.55;8.73;;;7.90;91.50;;;;;;4888499;29;20044;-74
2022/01/10 09:52:45;;;;;;;23.15;8.70;;;7.90;91.30;;;;;;4882597;29;20379;-73
2022/01/10 09:55:11;;;;;;;17.92;7.50;;;7.90;91.20;;;;;;4884365;29;20048;-72
2022/01/10 09:57:37;;;;;;;16.40;5.90;;;7.90;91.20;;;;;;4899701;29;20041;-72
2022/01/10 10:00:05;;;;;;;14.90;5.43;;;8.00;91.20;;;;;;4881645;29;20091;-72
2022/01/10 10:02:38;;;;;;;14.63;5.72;;;8.00;91.20;;;;;;4887981;29;20036;-70
2022/01/10 10:05:05;;;;;;;13.98;5.55;;;8.00;91.10;;;;;;4887597;29;20064;-70
2022/01/10 10:07:32;;;;;;;11.32;5.03;;;8.10;91.00;;;;;;4900223;29;20037;-69
2022/01/10 10:10:07;;;;;;;9.48;5.25;;;8.10;90.90;;;;;;4888537;29;20100;-68
2022/01/10 10:12:34;;;;;;;12.23;5.67;;;8.10;90.90;;;;;;4889602;29;20028;-68
2022/01/10 10:15:01;;;;;;;11.82;5.18;;;8.10;90.70;;;;;;4885459;29;20040;-69
2022/01/10 10:17:30;;;;;;;9.80;5.20;;;8.10;90.60;;;;;;4888087;29;20164;-68
2022/01/10 10:19:56;;;;;;;13.65;5.65;;;8.10;90.70;;;;;;4901149;29;20036;-69
2022/01/10 10:22:23;;;;;;;12.55;5.95;;;8.10;90.70;;;;;;4883803;29;20104;-68
2022/01/10 10:24:49;;;;;;;12.25;6.22;;;8.10;90.70;;;;;;4891977;29;20081;-68
2022/01/10 10:27:17;;;;;;;11.23;5.82;;;8.10;90.70;;;;;;4888331;29;20442;-68
2022/01/10 10:29:44;;;;;;;13.15;6.03;;;8.10;90.80;;;;;;4882750;29;20077;-68
2022/01/10 10:32:11;;;;;;;13.63;6.57;;;8.10;90.90;;;;;;4882909;29;20040;-68
2022/01/10 10:34:38;;;;;;;12.25;6.00;;;8.00;90.90;;;;;;4888013;29;20449;-68
2022/01/10 10:37:09;;;;;;;12.63;4.82;;;8.10;91.00;;;;;;4886861;29;20040;-67
2022/01/10 10:39:38;;;;;;;8.18;4.30;;;8.10;90.80;;;;;;4888652;29;20498;-69
2022/01/10 10:42:10;;;;;;;10.15;4.15;;;8.10;90.80;;;;;;4896994;29;20036;-69
2022/01/10 10:44:36;;;;;;;12.80;5.85;;;8.20;90.90;;;;;;4887833;29;20068;-69
2022/01/10 10:47:03;;;;;;;14.82;6.57;;;8.20;90.90;;;;;;4888399;29;20383;-68
2022/01/10 10:49:36;;;;;;;12.90;5.47;;;8.20;90.90;;;;;;4893198;29;20032;-71
2022/01/10 10:52:05;;;;;;;14.85;5.85;;;8.20;90.90;;;;;;4881819;29;20402;-75
2022/01/10 10:54:32;;;;;;;9.77;5.43;;;8.20;90.90;;;;;;4884842;29;20120;-74
2022/01/10 10:57:04;;;;;;;10.07;5.20;;;8.20;90.80;;;;;;4887869;29;20040;-74
2022/01/10 10:59:32;;;;;;;11.18;5.00;;;8.30;90.80;;;;;;4889082;29;20123;-73
2022/01/10 11:01:58;;;;;;;14.07;6.30;;;8.30;90.80;;;;;;4889622;29;20029;-72
2022/01/10 11:04:25;;;;;;;14.10;6.80;;;8.30;90.80;;;;;;4892017;29;20040;-69
2022/01/10 11:06:51;;;;;;;25.15;12.88;;;8.30;90.70;;;;;;4890143;29;20039;-69
2022/01/10 11:09:18;;;;;;;25.55;14.13;;;8.20;90.50;;;;;;4886993;29;20048;-69
2022/01/10 11:11:45;;;;;;;24.88;12.80;;;8.30;90.60;;;;;;4891066;29;20079;-69
2022/01/10 11:14:14;;;;;;;20.77;10.65;;;8.30;90.60;;;;;;4886402;29;20247;-69
2022/01/10 11:16:43;;;;;;;70.28;36.75;;;8.30;90.70;;;;;;4888734;29;20036;-68
2022/01/10 11:19:13;;;;;;;54.65;29.23;;;8.30;90.60;;;;;;4887983;29;20040;-68
2022/01/10 11:21:41;;;;;;;56.17;35.53;;;8.30;90.50;;;;;;4887513;29;20131;-68
2022/01/10 11:24:07;;;;;;;66.47;39.67;;;8.30;90.60;;;;;;4886205;29;20453;-66
2022/01/10 11:26:40;;;;;;;44.83;26.15;;;8.30;90.50;;;;;;4887259;29;20418;-68
2022/01/10 11:29:09;;;;;;;30.90;21.13;;;8.30;90.50;;;;;;4906631;29;20092;-68
2022/01/10 11:31:37;;;;;;;26.40;17.48;;;8.30;90.50;;;;;;4886195;29;20050;-68
2022/01/10 11:34:03;;;;;;;18.63;12.48;;;8.30;90.40;;;;;;4888133;29;20037;-67
2022/01/10 11:36:30;;;;;;;15.63;8.05;;;8.30;90.50;;;;;;4887073;29;20715;-69
2022/01/10 11:39:07;;;;;;;13.57;6.10;;;8.20;90.50;;;;;;4887792;29;20756;-68
2022/01/10 11:41:34;;;;;;;13.15;7.65;;;8.20;90.50;;;;;;4886341;29;20037;-70
2022/01/10 11:44:06;;;;;;;12.75;6.55;;;8.10;90.60;;;;;;4890709;29;20037;-68
2022/01/10 11:46:42;;;;;;;14.48;6.80;;;8.10;90.70;;;;;;4885768;29;20040;-68
2022/01/10 11:49:08;;;;;;;;;;;8.10;90.80;;;;;;4898739;29;20041;-68
2022/01/10 11:51:38;;;;;;;9.87;5.40;;;8.10;90.80;;;;;;4900205;29;19922;-69
2022/01/10 11:54:11;;;;;;;11.18;5.57;;;8.10;90.90;;;;;;4886657;29;20111;-69
2022/01/10 11:56:40;;;;;;;13.88;6.70;;;8.10;91.00;;;;;;4889821;29;20044;-69
2022/01/10 11:59:31;;;;;;;10.75;6.38;;;8.10;91.00;;;;;;4886808;29;20104;-69
2022/01/10 12:02:10;;;;;;;35.58;14.98;;;8.10;91.00;;;;;;4885431;29;20552;-69
2022/01/10 12:05:02;;;;;;;36.22;17.92;;;8.10;91.30;;;;;;4888780;29;20437;-68
2022/01/10 12:07:28;;;;;;;29.33;14.15;;;8.10;91.00;;;;;;4882083;29;20036;-68
2022/01/10 12:09:55;;;;;;;29.60;14.65;;;8.00;91.00;;;;;;4889169;29;20545;-68
2022/01/10 12:12:24;;;;;;;24.08;12.50;;;8.00;91.10;;;;;;4886631;29;20036;-68
2022/01/10 12:14:52;;;;;;;18.15;9.57;;;8.00;91.10;;;;;;4890588;29;20048;-68
2022/01/10 12:17:18;;;;;;;15.60;8.57;;;8.00;91.20;;;;;;4894921;29;20096;-68
2022/01/10 12:19:44;;;;;;;14.23;6.50;;;8.00;91.20;;;;;;4904499;29;20099;-68
2022/01/10 12:22:10;;;;;;;13.95;6.70;;;8.00;91.30;;;;;;4889288;29;20032;-68
2022/01/10 12:24:38;;;;;;;16.48;6.57;;;7.90;91.40;;;;;;4888849;29;20371;-70
2022/01/10 12:27:07;;;;;;;11.98;5.70;;;7.90;91.40;;;;;;4882916;29;20512;-69
2022/01/10 12:29:33;;;;;;;10.32;6.07;;;7.90;91.60;;;;;;4901810;29;20229;-69
2022/01/10 12:31:59;;;;;;;22.38;10.25;;;7.90;91.60;;;;;;4880908;29;20386;-68
2022/01/10 12:34:25;;;;;;;41.42;19.05;;;8.00;91.70;;;;;;4886720;29;20075;-68
2022/01/10 12:36:51;;;;;;;33.20;16.77;;;8.00;91.80;;;;;;4886093;29;20059;-68
2022/01/10 12:39:26;;;;;;;27.35;14.43;;;8.00;91.80;;;;;;4884210;29;20033;-68
2022/01/10 12:41:56;;;;;;;20.23;10.13;;;8.00;91.70;;;;;;4889128;29;20052;-69
2022/01/10 12:44:22;;;;;;;17.98;7.40;;;8.00;91.70;;;;;;4884899;29;20028;-67
2022/01/10 12:46:48;;;;;;;13.93;7.90;;;8.00;91.70;;;;;;4884903;29;20207;-68
2022/01/10 12:49:15;;;;;;;12.93;7.03;;;8.00;91.70;;;;;;4893453;29;20511;-67
2022/01/10 12:51:43;;;;;;;15.90;7.97;;;8.00;91.70;;;;;;4883416;29;20036;-68
2022/01/10 12:54:21;;;;;;;11.27;7.05;;;8.00;91.80;;;;;;4887624;29;20131;-67
2022/01/10 12:56:47;;;;;;;15.25;7.85;;;8.00;91.80;;;;;;4886753;29;20099;-68
2022/01/10 12:59:19;;;;;;;24.20;11.48;;;8.00;91.70;;;;;;4892257;29;20135;-68
2022/01/10 13:01:45;;;;;;;12.68;6.93;;;8.00;91.60;;;;;;4886067;29;20468;-67
2022/01/10 13:04:13;;;;;;;11.05;6.40;;;8.00;91.70;;;;;;4884012;29;20565;-66